Time;durP1;ratioP1;P1;durP2;ratioP2;P2;SDS_P1;SDS_P2;PMS_P1;PMS_P2;Temp;Humidity;BMP_temperature;BMP_pressure;BME280_temperature;BME280_humidity;BME280_pressure;Samples;Min_cycle;Max_cycle;Signal;HPM_P1;HPM_P2
2022/07/06 00:01:00;;;;;;;3.97;1.90;;;14.70;62.70;;;;;;5019410;28;20049;-77
2022/07/06 00:03:25;;;;;;;4.80;1.60;;;14.70;65.10;;;;;;5008244;28;20040;-77
2022/07/06 00:05:51;;;;;;;2.95;1.48;;;14.70;64.40;;;;;;5005500;28;20025;-76
2022/07/06 00:08:16;;;;;;;3.75;1.33;;;14.70;65.00;;;;;;5003126;28;20045;-78
2022/07/06 00:10:43;;;;;;;2.55;1.48;;;14.50;67.20;;;;;;5020659;28;20036;-77
2022/07/06 00:13:09;;;;;;;4.82;1.90;;;14.70;65.30;;;;;;5023726;28;20025;-77
2022/07/06 00:15:34;;;;;;;4.70;1.92;;;14.60;63.90;;;;;;5024503;28;20032;-77
2022/07/06 00:18:00;;;;;;;4.40;1.27;;;14.60;65.90;;;;;;5020976;28;20041;-77
2022/07/06 00:20:25;;;;;;;3.42;2.13;;;14.80;64.30;;;;;;5006932;28;20044;-77
2022/07/06 00:22:51;;;;;;;2.83;1.40;;;14.60;63.50;;;;;;4991215;28;20036;-77
2022/07/06 00:25:16;;;;;;;4.57;1.40;;;14.60;65.10;;;;;;5020716;28;20026;-77
2022/07/06 00:27:42;;;;;;;3.22;1.30;;;14.50;64.30;;;;;;5007398;28;20123;-77
2022/07/06 00:30:08;;;;;;;3.65;1.30;;;14.70;65.40;;;;;;5018702;28;20053;-77
2022/07/06 00:32:33;;;;;;;3.85;1.38;;;14.60;63.80;;;;;;5023752;28;20033;-78
2022/07/06 00:34:59;;;;;;;1.63;1.13;;;14.50;64.60;;;;;;5007828;28;20039;-77
2022/07/06 00:37:24;;;;;;;1.45;1.00;;;14.50;64.80;;;;;;5022733;28;20041;-77
2022/07/06 00:39:50;;;;;;;1.45;0.95;;;14.40;65.70;;;;;;5019763;28;20481;-77
2022/07/06 00:42:15;;;;;;;1.35;0.98;;;14.40;66.20;;;;;;5018418;28;20057;-78
2022/07/06 00:44:41;;;;;;;3.40;0.90;;;14.40;65.10;;;;;;5018151;28;20032;-78
2022/07/06 00:47:07;;;;;;;2.97;1.27;;;14.20;66.90;;;;;;5022741;28;20087;-78
2022/07/06 00:52:17;;;;;;;1.50;1.20;;;14.40;64.90;;;;;;5018317;28;20083;-77
2022/07/06 00:54:43;;;;;;;1.40;1.00;;;14.30;64.40;;;;;;5020499;28;20066;-77
2022/07/06 00:57:09;;;;;;;3.65;1.52;;;14.20;67.70;;;;;;5019960;28;20120;-77
2022/07/06 00:59:34;;;;;;;3.67;1.35;;;14.10;67.30;;;;;;4992481;28;20040;-77
2022/07/06 01:02:00;;;;;;;1.38;0.90;;;14.10;68.60;;;;;;5006186;28;20029;-77
2022/07/06 01:04:26;;;;;;;1.63;1.23;;;14.10;64.70;;;;;;5020760;28;20081;-77
2022/07/06 01:06:51;;;;;;;1.75;1.15;;;14.20;63.80;;;;;;5020426;28;20045;-76
2022/07/06 01:09:17;;;;;;;2.03;1.27;;;14.30;63.20;;;;;;5013013;28;20041;-77
2022/07/06 01:11:43;;;;;;;4.50;1.75;;;14.20;63.40;;;;;;5008964;28;20113;-77
2022/07/06 01:14:08;;;;;;;2.22;1.25;;;14.20;68.00;;;;;;5022784;28;20026;-77
2022/07/06 01:16:34;;;;;;;2.15;1.15;;;14.20;65.40;;;;;;4999619;28;20036;-77
2022/07/06 01:19:00;;;;;;;1.63;1.27;;;14.20;65.60;;;;;;5025405;28;20042;-77
2022/07/06 01:21:25;;;;;;;3.85;1.50;;;14.20;65.80;;;;;;5006953;28;20132;-77
2022/07/06 01:23:51;;;;;;;8.60;1.65;;;14.00;63.70;;;;;;5022265;28;20070;-77
2022/07/06 01:26:19;;;;;;;2.97;1.63;;;13.80;68.00;;;;;;5024012;28;20083;-77
2022/07/06 01:28:44;;;;;;;4.00;1.67;;;13.90;68.50;;;;;;5025891;28;20033;-77
2022/07/06 01:31:20;;;;;;;4.35;1.40;;;13.90;67.20;;;;;;5008675;28;20124;-77
2022/07/06 01:33:46;;;;;;;3.65;1.80;;;13.70;68.10;;;;;;5025496;28;20488;-76
2022/07/06 01:36:12;;;;;;;4.63;1.30;;;13.80;68.60;;;;;;5009650;28;20039;-77
2022/07/06 01:38:45;;;;;;;3.38;1.67;;;14.00;65.90;;;;;;5026984;28;20032;-77
2022/07/06 01:41:11;;;;;;;2.75;1.40;;;13.90;66.90;;;;;;5025708;28;20031;-77
2022/07/06 01:43:37;;;;;;;4.45;1.65;;;13.90;67.50;;;;;;5007986;28;20033;-76
2022/07/06 01:46:02;;;;;;;3.38;1.48;;;13.90;68.10;;;;;;5021370;28;20086;-78
2022/07/06 01:48:28;;;;;;;3.97;1.70;;;13.90;69.00;;;;;;5021416;28;20404;-77
2022/07/06 01:50:54;;;;;;;2.22;1.50;;;13.60;66.40;;;;;;5010457;28;20033;-77
2022/07/06 01:53:19;;;;;;;5.82;1.50;;;13.50;68.40;;;;;;5011060;28;20029;-77
2022/07/06 01:55:45;;;;;;;3.60;1.42;;;13.70;66.80;;;;;;5010482;28;20057;-76
2022/07/06 01:58:10;;;;;;;3.63;1.48;;;13.60;68.60;;;;;;5021709;28;20045;-77
2022/07/06 02:00:36;;;;;;;3.47;1.50;;;13.50;68.00;;;;;;5024967;28;20117;-77
2022/07/06 02:03:01;;;;;;;4.95;1.30;;;13.50;68.30;;;;;;5022897;28;20060;-77
2022/07/06 02:05:27;;;;;;;1.63;0.90;;;13.40;66.70;;;;;;5006765;28;20044;-77
2022/07/06 02:07:52;;;;;;;2.08;1.35;;;13.40;66.00;;;;;;5019923;28;20021;-77
2022/07/06 02:10:18;;;;;;;1.42;1.27;;;13.40;69.70;;;;;;5021557;28;20489;-76
2022/07/06 02:12:44;;;;;;;3.03;1.60;;;13.40;68.50;;;;;;5004977;28;20045;-77
2022/07/06 02:15:09;;;;;;;2.67;1.40;;;13.20;68.40;;;;;;5002819;28;20036;-77
2022/07/06 02:17:35;;;;;;;3.45;1.42;;;13.30;66.60;;;;;;4995554;28;20091;-76
2022/07/06 02:20:01;;;;;;;3.28;1.25;;;13.30;67.90;;;;;;5021443;28;20030;-76
2022/07/06 02:22:26;;;;;;;8.88;2.22;;;13.20;69.60;;;;;;5005372;28;20047;-77
2022/07/06 02:24:52;;;;;;;4.55;1.10;;;13.10;72.90;;;;;;5007446;28;20034;-76
2022/07/06 02:27:17;;;;;;;7.78;1.58;;;13.00;72.40;;;;;;5000930;28;20041;-77
2022/07/06 02:29:43;;;;;;;3.67;1.55;;;13.20;73.90;;;;;;5011335;28;20029;-77
2022/07/06 02:32:08;;;;;;;2.65;1.23;;;13.10;72.60;;;;;;5010304;28;20029;-77
2022/07/06 02:34:34;;;;;;;2.42;1.23;;;13.10;72.50;;;;;;5042502;28;20044;-77
2022/07/06 02:37:00;;;;;;;2.78;1.25;;;13.40;71.20;;;;;;5021925;28;20408;-77
2022/07/06 02:39:25;;;;;;;5.95;1.30;;;13.10;73.60;;;;;;5004314;28;20036;-76
2022/07/06 02:41:51;;;;;;;4.40;1.60;;;13.20;69.50;;;;;;4995144;28;20029;-76
2022/07/06 02:44:17;;;;;;;2.15;1.48;;;13.30;68.90;;;;;;5020358;28;20029;-77
2022/07/06 02:46:42;;;;;;;3.70;1.00;;;13.40;68.40;;;;;;4986623;28;1094166;-76
2022/07/06 02:49:08;;;;;;;5.05;1.33;;;13.30;67.80;;;;;;5023378;28;20021;-73
2022/07/06 02:51:33;;;;;;;2.53;1.10;;;13.00;69.10;;;;;;4998033;28;20120;-74
2022/07/06 02:53:59;;;;;;;2.50;1.00;;;13.30;69.90;;;;;;5011009;28;20025;-73
2022/07/06 02:56:24;;;;;;;3.95;1.48;;;13.20;69.20;;;;;;5010108;28;20084;-74
2022/07/06 02:58:50;;;;;;;8.07;1.40;;;13.10;69.10;;;;;;5010963;28;20030;-73
2022/07/06 03:01:15;;;;;;;2.90;1.27;;;13.10;69.20;;;;;;5009518;28;20690;-73
2022/07/06 03:03:41;;;;;;;3.28;1.25;;;13.10;69.70;;;;;;5011604;28;20063;-74
2022/07/06 03:06:07;;;;;;;5.38;1.40;;;13.10;70.60;;;;;;5020596;28;20029;-74
2022/07/06 03:08:34;;;;;;;2.58;0.98;;;13.10;70.00;;;;;;5023945;28;20045;-74
2022/07/06 03:10:59;;;;;;;3.42;1.10;;;13.10;69.70;;;;;;5009449;28;20032;-74
2022/07/06 03:13:26;;;;;;;1.00;0.90;;;13.00;70.90;;;;;;5022461;28;20033;-75
2022/07/06 03:15:51;;;;;;;4.35;2.05;;;13.20;72.40;;;;;;5021397;28;20041;-73
2022/07/06 03:18:17;;;;;;;2.78;1.20;;;13.10;71.50;;;;;;5009798;28;20048;-73
2022/07/06 03:20:43;;;;;;;2.20;1.10;;;13.30;72.80;;;;;;5005573;28;20033;-74
2022/07/06 03:23:08;;;;;;;4.53;1.30;;;13.30;71.80;;;;;;5004045;28;20061;-74
2022/07/06 03:25:34;;;;;;;1.85;1.27;;;13.10;70.20;;;;;;5006550;28;20036;-74
2022/07/06 03:27:59;;;;;;;3.15;1.20;;;13.00;71.40;;;;;;5002768;28;20572;-74
2022/07/06 03:30:25;;;;;;;5.90;2.03;;;12.70;71.60;;;;;;5001501;28;20034;-74
2022/07/06 03:32:50;;;;;;;4.63;1.80;;;12.90;72.20;;;;;;5012515;28;20545;-74
2022/07/06 03:35:16;;;;;;;2.22;1.13;;;12.80;72.20;;;;;;5014349;28;20461;-74
2022/07/06 03:37:41;;;;;;;2.40;1.48;;;12.80;71.70;;;;;;4989840;28;20496;-74
2022/07/06 03:40:07;;;;;;;6.13;1.55;;;12.80;71.70;;;;;;5004722;28;20124;-74
2022/07/06 03:42:33;;;;;;;3.75;1.60;;;12.90;72.00;;;;;;5032961;28;20037;-74
2022/07/06 03:44:58;;;;;;;3.13;1.92;;;12.90;71.50;;;;;;5015642;28;20045;-74
2022/07/06 03:47:24;;;;;;;6.43;2.65;;;12.90;73.90;;;;;;5022105;28;20038;-73
2022/07/06 03:49:50;;;;;;;3.45;1.50;;;12.90;74.10;;;;;;5023582;28;20082;-74
2022/07/06 03:52:15;;;;;;;2.80;1.38;;;13.10;72.00;;;;;;5004087;28;20053;-73
2022/07/06 03:54:41;;;;;;;3.78;1.42;;;13.30;74.20;;;;;;5003405;28;20143;-74
2022/07/06 03:57:06;;;;;;;2.75;1.98;;;13.20;68.90;;;;;;5021613;28;21019;-75
2022/07/06 03:59:32;;;;;;;2.40;1.70;;;13.30;69.10;;;;;;5011368;28;20085;-76
2022/07/06 04:01:57;;;;;;;5.65;2.25;;;13.30;69.20;;;;;;5022840;28;20030;-77
2022/07/06 04:04:23;;;;;;;5.72;2.97;;;13.80;71.60;;;;;;5041876;28;20149;-77
2022/07/06 04:06:48;;;;;;;9.15;3.40;;;13.10;70.40;;;;;;5023464;28;20029;-76
2022/07/06 04:09:14;;;;;;;8.13;3.08;;;13.30;76.10;;;;;;5021058;28;20033;-77
2022/07/06 04:11:39;;;;;;;6.32;2.00;;;13.00;73.70;;;;;;5019591;28;20036;-76
2022/07/06 04:14:05;;;;;;;6.82;2.17;;;13.10;74.60;;;;;;5000949;28;20025;-75
2022/07/06 04:16:30;;;;;;;7.10;3.15;;;13.00;74.10;;;;;;5026202;28;20124;-76
2022/07/06 04:18:56;;;;;;;9.45;2.80;;;13.10;78.00;;;;;;5023629;28;20101;-76
2022/07/06 04:21:22;;;;;;;7.90;2.72;;;13.00;74.50;;;;;;5020485;28;20052;-76
2022/07/06 04:23:47;;;;;;;10.35;3.70;;;13.30;76.70;;;;;;5007724;28;20043;-75
2022/07/06 04:26:13;;;;;;;8.35;3.38;;;13.20;76.80;;;;;;5019289;28;20071;-76
2022/07/06 04:28:38;;;;;;;8.00;3.40;;;13.30;74.40;;;;;;5003116;28;20041;-76
2022/07/06 04:31:04;;;;;;;7.38;2.53;;;13.30;74.90;;;;;;5020763;28;20029;-76
2022/07/06 04:33:29;;;;;;;9.10;3.47;;;13.30;73.50;;;;;;5022724;28;20057;-76
2022/07/06 04:35:55;;;;;;;8.35;3.53;;;13.40;73.40;;;;;;5023566;28;20025;-76
2022/07/06 04:38:20;;;;;;;5.97;2.80;;;13.60;73.00;;;;;;5020664;28;20037;-75
2022/07/06 04:40:46;;;;;;;7.60;2.88;;;13.70;73.80;;;;;;5020242;28;20041;-74
2022/07/06 04:43:12;;;;;;;4.32;1.98;;;13.60;73.40;;;;;;5037506;28;20025;-74
2022/07/06 04:45:37;;;;;;;9.35;3.80;;;13.60;73.50;;;;;;5016882;28;20043;-74
2022/07/06 04:48:03;;;;;;;5.88;2.60;;;13.70;75.80;;;;;;5005977;28;20485;-73
2022/07/06 04:50:29;;;;;;;7.40;2.50;;;13.60;74.30;;;;;;5002891;28;20029;-74
2022/07/06 04:52:54;;;;;;;8.50;2.70;;;13.90;74.00;;;;;;5004981;28;20044;-74
2022/07/06 04:55:20;;;;;;;5.88;3.30;;;14.10;72.20;;;;;;5018669;28;20033;-73
2022/07/06 04:57:46;;;;;;;9.50;3.70;;;14.10;75.00;;;;;;5023218;28;20037;-74
2022/07/06 05:00:12;;;;;;;5.80;2.55;;;14.10;76.30;;;;;;5016751;28;20238;-74
2022/07/06 05:02:38;;;;;;;6.72;2.85;;;14.10;70.30;;;;;;4988216;28;20439;-75
2022/07/06 05:05:04;;;;;;;7.30;2.42;;;14.20;70.20;;;;;;5005930;28;20038;-75
2022/07/06 05:07:30;;;;;;;8.77;2.75;;;14.40;69.90;;;;;;5023018;28;20520;-76
2022/07/06 05:09:56;;;;;;;9.15;3.03;;;14.80;73.60;;;;;;4994664;28;20033;-77
2022/07/06 05:12:22;;;;;;;6.25;2.88;;;14.90;72.60;;;;;;5010873;28;20041;-76
2022/07/06 05:14:47;;;;;;;8.10;2.78;;;15.00;71.50;;;;;;5022701;28;20035;-75
2022/07/06 05:17:13;;;;;;;9.38;3.13;;;15.10;68.80;;;;;;5019616;28;20064;-75
2022/07/06 05:19:38;;;;;;;5.80;2.90;;;15.10;69.00;;;;;;5009664;28;20401;-74
2022/07/06 05:22:04;;;;;;;8.57;2.95;;;15.10;67.90;;;;;;5014767;28;20060;-75
2022/07/06 05:24:29;;;;;;;6.93;2.60;;;15.10;71.50;;;;;;5022863;28;20067;-75
2022/07/06 05:26:55;;;;;;;9.95;2.50;;;15.40;70.70;;;;;;5008697;28;20075;-75
2022/07/06 05:29:21;;;;;;;3.75;1.95;;;15.40;67.70;;;;;;5005168;28;20167;-75
2022/07/06 05:31:46;;;;;;;4.88;2.20;;;15.30;69.30;;;;;;5002267;28;20086;-74
2022/07/06 05:34:12;;;;;;;5.13;2.63;;;15.50;67.30;;;;;;5007561;28;20045;-75
2022/07/06 05:36:38;;;;;;;5.38;1.90;;;15.40;66.40;;;;;;5007285;28;20048;-75
2022/07/06 05:39:03;;;;;;;8.98;2.90;;;15.50;66.90;;;;;;5020447;28;20025;-76
2022/07/06 05:41:29;;;;;;;7.15;2.10;;;15.50;68.80;;;;;;4993398;28;20033;-76
2022/07/06 05:43:55;;;;;;;6.82;2.70;;;15.60;66.60;;;;;;4994536;28;20089;-76
2022/07/06 05:46:20;;;;;;;5.03;2.15;;;15.70;69.10;;;;;;5003057;28;20042;-77
2022/07/06 05:51:30;;;;;;;9.88;2.20;;;16.10;68.70;;;;;;5022111;28;20036;-76
2022/07/06 05:53:56;;;;;;;4.07;1.80;;;16.30;69.90;;;;;;5007770;28;20476;-76
2022/07/06 05:56:22;;;;;;;7.63;1.80;;;16.50;69.40;;;;;;5011892;28;20676;-76
2022/07/06 05:58:48;;;;;;;3.63;1.38;;;16.60;70.30;;;;;;5025240;28;20041;-76
2022/07/06 06:01:13;;;;;;;3.72;1.60;;;16.80;69.70;;;;;;5010237;28;20079;-76
2022/07/06 06:03:39;;;;;;;5.22;1.50;;;16.90;66.50;;;;;;5010404;28;20361;-75
2022/07/06 06:06:05;;;;;;;3.70;1.13;;;17.10;69.90;;;;;;5008881;28;20488;-75
2022/07/06 06:08:30;;;;;;;4.07;1.25;;;17.30;69.90;;;;;;4996239;28;20067;-76
2022/07/06 06:10:56;;;;;;;3.85;1.20;;;17.50;69.00;;;;;;5026584;28;20029;-75
2022/07/06 06:13:22;;;;;;;7.55;1.50;;;17.70;69.30;;;;;;5026734;28;20681;-76
2022/07/06 06:15:48;;;;;;;7.95;1.40;;;17.90;71.70;;;;;;5025562;28;20116;-77
2022/07/06 06:18:16;;;;;;;5.05;1.20;;;18.00;69.10;;;;;;5005176;28;20127;-75
2022/07/06 06:20:42;;;;;;;6.85;1.30;;;18.10;69.40;;;;;;5011761;28;20310;-74
2022/07/06 06:23:07;;;;;;;4.93;1.20;;;18.30;69.20;;;;;;5024053;28;20036;-76
2022/07/06 06:25:37;;;;;;;3.35;0.95;;;18.40;67.00;;;;;;5005924;28;20038;-74
2022/07/06 06:28:04;;;;;;;3.35;0.90;;;18.50;67.70;;;;;;5008516;28;20037;-76
2022/07/06 06:30:29;;;;;;;3.65;1.20;;;18.60;67.90;;;;;;4994620;28;20086;-75
2022/07/06 06:33:12;;;;;;;3.83;0.98;;;18.70;68.30;;;;;;5012326;28;20033;-76
2022/07/06 06:35:43;;;;;;;3.17;0.90;;;19.00;67.40;;;;;;5026192;28;20033;-76
2022/07/06 06:38:08;;;;;;;3.15;1.02;;;19.10;67.20;;;;;;5011081;28;20064;-75
2022/07/06 06:40:34;;;;;;;3.45;1.35;;;19.30;66.80;;;;;;5022977;28;20060;-76
2022/07/06 06:43:00;;;;;;;5.18;1.25;;;19.30;64.70;;;;;;5005094;28;20041;-75
2022/07/06 06:45:25;;;;;;;1.95;0.70;;;19.50;65.30;;;;;;5025817;28;20818;-76
2022/07/06 06:47:51;;;;;;;2.83;0.88;;;19.60;66.10;;;;;;5025451;28;20060;-76
2022/07/06 06:50:17;;;;;;;3.03;0.90;;;19.70;65.20;;;;;;5022033;28;20040;-76
2022/07/06 06:52:42;;;;;;;3.42;0.57;;;19.80;65.10;;;;;;5011823;28;20033;-76
2022/07/06 06:55:08;;;;;;;4.70;0.82;;;19.80;63.90;;;;;;5004225;28;20025;-76
2022/07/06 06:57:34;;;;;;;2.53;0.88;;;19.80;65.30;;;;;;5010448;28;20033;-76
2022/07/06 07:00:00;;;;;;;4.30;1.02;;;20.00;64.10;;;;;;5007025;28;20029;-76
2022/07/06 07:02:25;;;;;;;3.00;0.80;;;20.00;63.80;;;;;;5006136;28;20408;-76
2022/07/06 07:04:51;;;;;;;2.17;0.77;;;20.10;64.80;;;;;;5011717;28;20045;-76
2022/07/06 07:07:17;;;;;;;5.10;1.00;;;20.20;66.80;;;;;;5013590;28;20056;-76
2022/07/06 07:09:42;;;;;;;5.93;1.02;;;20.20;64.20;;;;;;5025252;28;20060;-76
2022/07/06 07:12:08;;;;;;;4.25;0.95;;;20.30;63.60;;;;;;5017338;28;20047;-76
2022/07/06 07:14:33;;;;;;;2.05;0.70;;;20.50;63.30;;;;;;4994975;28;20116;-77
2022/07/06 07:16:59;;;;;;;3.72;0.80;;;20.70;62.90;;;;;;5023125;28;20028;-77
2022/07/06 07:19:24;;;;;;;2.47;0.80;;;20.90;63.50;;;;;;5028211;28;20037;-77
2022/07/06 07:21:50;;;;;;;3.95;0.95;;;21.00;61.80;;;;;;5005995;28;20017;-76
2022/07/06 07:24:16;;;;;;;2.40;0.65;;;21.10;61.10;;;;;;5008916;28;20389;-76
2022/07/06 07:26:41;;;;;;;5.00;0.90;;;21.20;61.50;;;;;;5007210;28;20086;-77
2022/07/06 07:29:07;;;;;;;3.13;0.57;;;21.40;61.60;;;;;;5005284;28;20032;-77
2022/07/06 07:31:32;;;;;;;4.50;0.70;;;21.40;61.10;;;;;;5024328;28;20033;-78
2022/07/06 07:33:58;;;;;;;3.65;0.77;;;21.40;59.80;;;;;;5024507;28;20037;-77
2022/07/06 07:36:25;;;;;;;4.43;1.27;;;21.70;59.40;;;;;;5024636;28;20060;-76
2022/07/06 07:38:50;;;;;;;4.25;0.82;;;21.90;59.50;;;;;;5005121;28;20044;-77
2022/07/06 07:41:16;;;;;;;1.45;0.63;;;22.10;59.70;;;;;;5022853;28;20022;-77
2022/07/06 07:43:42;;;;;;;2.08;0.50;;;22.40;58.40;;;;;;5018402;28;20071;-76
2022/07/06 07:46:08;;;;;;;3.88;0.82;;;22.40;57.50;;;;;;5005494;28;20040;-77
2022/07/06 07:48:34;;;;;;;1.75;0.80;;;22.50;58.20;;;;;;5026304;28;20515;-76
2022/07/06 07:50:59;;;;;;;3.22;0.90;;;22.60;58.80;;;;;;5009345;28;20092;-77
2022/07/06 07:53:25;;;;;;;1.55;0.63;;;22.70;59.40;;;;;;5023341;28;20045;-77
2022/07/06 07:55:50;;;;;;;3.85;0.65;;;22.70;58.60;;;;;;4994195;28;20545;-76
2022/07/06 07:58:16;;;;;;;4.15;0.60;;;22.70;57.30;;;;;;5007093;28;20203;-76
2022/07/06 08:00:42;;;;;;;2.17;0.68;;;22.90;54.70;;;;;;5021627;28;20346;-76
2022/07/06 08:03:07;;;;;;;2.30;0.60;;;22.80;55.70;;;;;;5021577;28;20028;-76
2022/07/06 08:05:33;;;;;;;1.75;0.68;;;22.70;55.90;;;;;;5008937;28;20032;-76
2022/07/06 08:07:59;;;;;;;7.65;0.80;;;22.80;55.70;;;;;;5020560;28;20056;-76
2022/07/06 08:10:25;;;;;;;2.72;0.70;;;23.00;56.20;;;;;;5011560;28;20045;-76
2022/07/06 08:12:50;;;;;;;4.07;0.63;;;23.20;55.70;;;;;;5017518;28;20033;-78
2022/07/06 08:15:16;;;;;;;3.63;0.70;;;23.80;55.20;;;;;;5017978;28;20685;-79
2022/07/06 08:17:42;;;;;;;2.67;0.60;;;24.10;55.00;;;;;;4993743;28;20051;-79
2022/07/06 08:20:08;;;;;;;3.03;1.05;;;24.20;54.90;;;;;;5019827;28;20440;-78
2022/07/06 08:22:35;;;;;;;4.20;0.70;;;24.50;54.20;;;;;;5021246;28;20075;-81
2022/07/06 08:25:01;;;;;;;3.80;0.80;;;24.80;53.30;;;;;;5002720;28;20030;-81
2022/07/06 08:27:27;;;;;;;2.45;0.50;;;24.90;53.30;;;;;;5008173;28;20029;-81
2022/07/06 08:29:52;;;;;;;3.30;0.80;;;24.90;52.80;;;;;;5006340;28;20060;-81
2022/07/06 08:32:19;;;;;;;1.17;0.68;;;25.30;55.50;;;;;;5003522;28;20065;-80
2022/07/06 08:34:45;;;;;;;4.93;0.90;;;25.70;51.60;;;;;;5038346;28;20128;-83
2022/07/06 08:37:11;;;;;;;5.47;0.70;;;26.20;49.90;;;;;;5009281;28;20064;-83
2022/07/06 08:39:37;;;;;;;5.30;0.68;;;26.20;50.90;;;;;;5005876;28;20072;-83
2022/07/06 08:42:03;;;;;;;4.15;0.75;;;26.40;50.20;;;;;;5020847;28;20048;-80
2022/07/06 08:44:29;;;;;;;2.35;1.00;;;26.70;49.80;;;;;;5009420;28;20032;-82
2022/07/06 08:46:55;;;;;;;3.20;1.08;;;26.60;50.00;;;;;;4999400;28;20436;-83
2022/07/06 08:49:20;;;;;;;5.03;0.80;;;26.50;49.40;;;;;;5009714;28;20037;-83
2022/07/06 08:51:46;;;;;;;6.47;0.70;;;26.40;48.80;;;;;;5005196;28;20032;-82
2022/07/06 08:54:12;;;;;;;2.42;0.52;;;26.30;49.20;;;;;;5022096;28;20079;-82
2022/07/06 08:56:38;;;;;;;1.67;0.50;;;26.10;48.90;;;;;;4994473;28;20025;-82
2022/07/06 08:59:04;;;;;;;2.05;0.55;;;26.10;48.60;;;;;;5021034;28;20485;-82
2022/07/06 09:01:30;;;;;;;7.15;0.80;;;26.20;48.10;;;;;;5022376;28;20032;-81
2022/07/06 09:03:56;;;;;;;1.45;0.75;;;26.40;48.30;;;;;;5019587;28;20087;-81
2022/07/06 09:06:27;;;;;;;2.45;0.50;;;26.50;48.30;;;;;;5005268;28;20047;-79
2022/07/06 09:08:54;;;;;;;5.65;0.70;;;26.60;47.90;;;;;;4995166;28;20067;-82
2022/07/06 09:11:21;;;;;;;3.25;0.70;;;26.80;47.00;;;;;;5023122;28;20144;-82
2022/07/06 09:13:47;;;;;;;1.40;0.68;;;26.80;46.50;;;;;;5021481;28;20033;-83
2022/07/06 09:16:15;;;;;;;0.98;0.57;;;26.80;46.00;;;;;;5002700;28;20045;-81
2022/07/06 09:18:43;;;;;;;2.55;0.70;;;26.80;45.00;;;;;;4986875;28;20025;-81
2022/07/06 09:21:09;;;;;;;0.88;0.60;;;26.70;45.20;;;;;;4988072;28;20478;-83
2022/07/06 09:23:36;;;;;;;1.60;0.60;;;26.60;45.10;;;;;;4994326;28;20029;-81
2022/07/06 09:26:03;;;;;;;1.65;0.95;;;26.60;45.40;;;;;;5025196;28;20602;-84
2022/07/06 09:28:44;;;;;;;4.25;0.98;;;26.60;45.60;;;;;;5012963;28;20033;-82
2022/07/06 09:31:09;;;;;;;2.28;0.45;;;26.60;46.70;;;;;;5022956;28;20037;-81
2022/07/06 09:33:35;;;;;;;0.90;0.50;;;26.60;46.30;;;;;;5024582;28;20503;-80
2022/07/06 09:36:02;;;;;;;1.48;0.60;;;26.80;46.10;;;;;;5024997;28;20034;-80
2022/07/06 09:38:27;;;;;;;2.67;0.57;;;26.70;46.40;;;;;;5008655;28;20491;-81
2022/07/06 09:40:53;;;;;;;2.28;0.50;;;26.90;45.70;;;;;;5022622;28;20044;-81
2022/07/06 09:43:23;;;;;;;2.28;0.63;;;26.90;45.60;;;;;;5024504;28;20123;-79
2022/07/06 09:45:50;;;;;;;3.72;0.60;;;27.00;45.30;;;;;;5006297;28;20095;-80
2022/07/06 09:48:23;;;;;;;3.63;1.25;;;27.10;45.20;;;;;;5012037;28;20108;-79
2022/07/06 09:50:50;;;;;;;5.43;0.80;;;27.20;45.60;;;;;;5014157;28;20079;-81
2022/07/06 09:53:16;;;;;;;3.63;0.90;;;27.00;45.00;;;;;;5038723;28;20417;-81
2022/07/06 09:55:45;;;;;;;1.58;0.50;;;27.10;45.90;;;;;;4995832;28;20037;-81
2022/07/06 09:58:11;;;;;;;3.80;0.50;;;27.50;43.70;;;;;;5025440;28;20036;-79
2022/07/06 10:00:38;;;;;;;4.75;0.65;;;27.60;44.00;;;;;;5028207;28;20468;-82
2022/07/06 10:03:04;;;;;;;3.75;0.65;;;27.70;43.80;;;;;;4997793;28;20029;-80
2022/07/06 10:05:29;;;;;;;3.00;1.10;;;27.70;44.00;;;;;;5012130;28;20029;-81
2022/07/06 10:08:00;;;;;;;4.72;0.95;;;27.80;44.30;;;;;;5031944;28;20030;-80
2022/07/06 10:10:29;;;;;;;4.40;0.90;;;27.80;44.50;;;;;;5032534;28;20037;-78
2022/07/06 10:12:56;;;;;;;2.38;0.70;;;27.80;45.00;;;;;;4997282;28;20025;-81
2022/07/06 10:15:25;;;;;;;2.78;0.88;;;27.70;44.50;;;;;;5009499;28;20041;-78
2022/07/06 10:17:51;;;;;;;2.70;0.60;;;28.10;44.10;;;;;;5011439;28;20040;-82
2022/07/06 10:20:18;;;;;;;2.50;0.70;;;28.40;44.00;;;;;;5041049;28;20108;-81
2022/07/06 10:22:44;;;;;;;3.47;0.90;;;28.40;43.90;;;;;;5040230;28;20025;-81
2022/07/06 10:25:09;;;;;;;2.00;0.80;;;28.80;42.90;;;;;;5026096;28;20055;-80
2022/07/06 10:27:35;;;;;;;1.48;0.50;;;29.00;42.40;;;;;;5035152;28;20073;-82
2022/07/06 10:30:01;;;;;;;2.13;0.75;;;29.00;43.10;;;;;;5019654;28;20047;-79
2022/07/06 10:32:27;;;;;;;3.05;0.80;;;28.80;41.90;;;;;;5037454;28;20037;-81
2022/07/06 10:34:52;;;;;;;5.35;0.95;;;29.10;41.40;;;;;;5017560;28;20025;-81
2022/07/06 10:37:25;;;;;;;2.85;0.85;;;29.30;41.20;;;;;;5026778;28;20041;-79
2022/07/06 10:42:51;;;;;;;2.17;0.68;;;29.50;40.70;;;;;;5029104;28;20055;-81
2022/07/06 10:45:45;;;;;;;1.33;0.73;;;29.40;42.00;;;;;;5012774;28;20029;-82
2022/07/06 10:48:17;;;;;;;2.47;0.70;;;29.70;41.50;;;;;;5022156;28;20080;-83
2022/07/06 10:50:51;;;;;;;2.25;0.70;;;29.70;41.50;;;;;;5025196;28;20475;-79
2022/07/06 10:53:26;;;;;;;1.58;0.75;;;29.80;40.80;;;;;;5010074;28;20128;-81
2022/07/06 10:55:53;;;;;;;3.92;0.77;;;30.00;40.50;;;;;;5040390;28;20037;-83
2022/07/06 10:58:41;;;;;;;1.75;0.70;;;29.90;40.50;;;;;;5023326;28;20509;-83
2022/07/06 11:01:08;;;;;;;2.38;0.73;;;30.00;40.20;;;;;;5020898;28;20033;-82
2022/07/06 11:03:44;;;;;;;1.67;0.55;;;30.40;39.60;;;;;;5020830;28;20072;-82
2022/07/06 11:06:22;;;;;;;2.95;0.82;;;30.40;39.10;;;;;;5009482;28;20181;-81
2022/07/06 11:08:57;;;;;;;3.38;0.80;;;30.20;39.20;;;;;;5021640;28;20088;-82
2022/07/06 11:11:40;;;;;;;6.82;1.52;;;30.20;39.30;;;;;;5023036;28;20095;-82
2022/07/06 11:14:09;;;;;;;6.32;0.93;;;30.10;39.70;;;;;;4990755;28;20440;-82
2022/07/06 11:16:48;;;;;;;6.30;0.90;;;29.90;39.70;;;;;;5024057;28;20492;-82
2022/07/06 11:19:18;;;;;;;3.70;0.80;;;30.00;39.60;;;;;;5022927;28;20052;-82
2022/07/06 11:21:44;;;;;;;2.22;1.10;;;30.10;39.40;;;;;;5010938;28;20392;-81
2022/07/06 11:24:12;;;;;;;1.27;0.73;;;30.00;39.50;;;;;;5023933;28;20040;-82
2022/07/06 11:26:38;;;;;;;5.72;1.30;;;30.00;39.50;;;;;;5007962;28;20030;-81
2022/07/06 11:29:07;;;;;;;4.05;1.00;;;30.00;40.20;;;;;;5023240;28;20048;-82
2022/07/06 11:31:34;;;;;;;8.35;1.27;;;30.00;40.00;;;;;;5004959;28;20120;-82
2022/07/06 11:34:00;;;;;;;4.68;1.15;;;29.90;39.80;;;;;;5006396;28;20540;-81
2022/07/06 11:36:26;;;;;;;8.82;1.02;;;29.80;40.10;;;;;;5009859;28;20124;-81
2022/07/06 11:38:51;;;;;;;3.30;0.98;;;29.70;40.10;;;;;;5009713;28;20039;-80
2022/07/06 11:41:18;;;;;;;6.88;1.42;;;29.80;39.90;;;;;;5019944;28;20030;-81
2022/07/06 11:43:45;;;;;;;5.85;1.48;;;29.70;39.80;;;;;;4994911;28;20033;-80
2022/07/06 11:46:25;;;;;;;4.47;1.63;;;29.80;39.40;;;;;;5004458;28;20083;-81
2022/07/06 11:48:53;;;;;;;6.05;0.93;;;29.90;39.80;;;;;;5025385;28;20515;-82
2022/07/06 11:51:19;;;;;;;5.75;1.25;;;29.80;39.70;;;;;;5021003;28;20040;-82
2022/07/06 11:53:51;;;;;;;3.67;0.93;;;29.90;39.10;;;;;;5006523;28;20219;-82
2022/07/06 11:56:18;;;;;;;2.15;0.70;;;30.10;39.30;;;;;;5000301;28;20087;-82
2022/07/06 11:58:46;;;;;;;3.95;0.68;;;29.80;39.80;;;;;;5024988;28;20071;-82
2022/07/06 12:01:12;;;;;;;2.95;1.08;;;29.90;40.10;;;;;;5005917;28;20109;-82
2022/07/06 12:03:38;;;;;;;5.10;0.82;;;30.10;39.20;;;;;;5024502;28;20029;-83
2022/07/06 12:06:04;;;;;;;8.65;0.70;;;30.30;37.60;;;;;;5003863;28;20507;-83
2022/07/06 12:08:30;;;;;;;3.83;0.95;;;30.50;38.40;;;;;;5039369;28;20044;-80
2022/07/06 12:10:56;;;;;;;1.63;0.80;;;30.80;37.80;;;;;;4991586;28;20036;-82
2022/07/06 12:13:23;;;;;;;1.23;0.80;;;30.90;37.60;;;;;;5022147;28;20037;-80
2022/07/06 12:15:48;;;;;;;2.58;0.55;;;31.10;38.70;;;;;;5037932;28;20028;-80
2022/07/06 12:18:14;;;;;;;4.68;0.80;;;31.00;38.20;;;;;;5007998;28;20370;-80
2022/07/06 12:20:40;;;;;;;4.40;0.90;;;31.30;38.20;;;;;;4994884;28;20459;-78
2022/07/06 12:23:07;;;;;;;2.08;0.73;;;31.30;38.00;;;;;;5006667;28;20040;-79
2022/07/06 12:25:33;;;;;;;6.13;0.90;;;31.00;38.00;;;;;;5014484;28;20033;-79
2022/07/06 12:27:59;;;;;;;3.65;0.95;;;31.10;38.40;;;;;;5008438;28;20551;-79
2022/07/06 12:30:25;;;;;;;4.72;0.80;;;31.30;38.60;;;;;;5009645;28;20122;-79
2022/07/06 12:33:15;;;;;;;2.72;0.75;;;30.80;38.40;;;;;;5007352;28;20830;-79
2022/07/06 12:35:44;;;;;;;2.22;0.90;;;31.30;38.30;;;;;;5024215;28;20036;-78
2022/07/06 12:38:10;;;;;;;2.85;0.75;;;31.60;38.10;;;;;;5001259;28;20030;-78
2022/07/06 12:40:36;;;;;;;4.18;0.90;;;31.70;37.80;;;;;;5020122;28;20041;-78
2022/07/06 12:43:02;;;;;;;2.53;0.70;;;31.70;37.40;;;;;;5000655;28;20037;-77
2022/07/06 12:45:28;;;;;;;2.38;0.50;;;31.90;36.90;;;;;;5009183;28;20049;-78
2022/07/06 12:47:59;;;;;;;2.30;1.00;;;31.90;37.10;;;;;;5020833;28;20043;-78
2022/07/06 12:50:31;;;;;;;3.58;1.20;;;31.80;37.20;;;;;;5004603;28;20044;-78